createdAt,value
2023-03-05T00:01:12.395Z,30.10
2023-03-05T00:03:39.331Z,30.95
2023-03-05T00:06:06.552Z,30.67
2023-03-05T00:08:33.856Z,29.13
2023-03-05T00:11:03.574Z,29.38
2023-03-05T00:13:30.273Z,30.50
2023-03-05T00:15:57.131Z,30.95
2023-03-05T00:18:24.117Z,33.70
2023-03-05T00:20:51.220Z,35.55
2023-03-05T00:23:17.878Z,34.03
2023-03-05T00:25:46.108Z,32.88
2023-03-05T00:28:13.243Z,33.25
2023-03-05T00:30:39.972Z,32.13
2023-03-05T00:33:06.658Z,34.22
2023-03-05T00:35:39.781Z,29.77
2023-03-05T00:38:06.471Z,28.30
2023-03-05T00:40:36.919Z,31.83
2023-03-05T00:43:03.742Z,30.02
2023-03-05T00:45:30.466Z,30.33
2023-03-05T00:47:57.300Z,30.33
2023-03-05T00:50:24.561Z,27.20
2023-03-05T00:52:51.423Z,29.58
2023-03-05T00:55:18.281Z,29.15
2023-03-05T00:57:45.200Z,31.60
2023-03-05T01:00:13.012Z,28.08
2023-03-05T01:02:39.745Z,30.77
2023-03-05T01:05:07.289Z,31.35
2023-03-05T01:07:33.996Z,29.23
2023-03-05T01:10:00.735Z,29.42
2023-03-05T01:12:27.394Z,30.48
2023-03-05T01:14:54.087Z,25.77
2023-03-05T01:17:20.737Z,28.77
2023-03-05T01:19:47.430Z,26.80
2023-03-05T01:22:14.104Z,28.60
2023-03-05T01:24:40.833Z,31.48
2023-03-05T01:27:07.523Z,29.27
2023-03-05T01:29:34.216Z,28.23
2023-03-05T01:32:02.426Z,26.67
2023-03-05T01:34:29.192Z,31.50
2023-03-05T01:36:55.941Z,28.30
2023-03-05T01:39:22.669Z,29.92
2023-03-05T01:41:49.330Z,27.77
2023-03-05T01:44:27.518Z,29.65
2023-03-05T01:46:54.309Z,26.70
2023-03-05T01:49:22.283Z,28.63
2023-03-05T01:51:56.439Z,28.55
2023-03-05T01:54:27.212Z,28.38
2023-03-05T01:56:56.137Z,26.88
2023-03-05T01:59:23.845Z,27.38
2023-03-05T02:01:53.478Z,28.70
2023-03-05T02:04:21.965Z,29.90
2023-03-05T02:06:49.940Z,27.52
2023-03-05T02:09:16.734Z,28.48
2023-03-05T02:11:43.599Z,27.38
2023-03-05T02:14:10.499Z,27.02
2023-03-05T02:16:38.190Z,28.67
2023-03-05T02:19:07.429Z,29.20
2023-03-05T02:21:40.583Z,28.42
2023-03-05T02:24:07.543Z,31.38
2023-03-05T02:26:34.300Z,32.38
2023-03-05T02:29:01.949Z,31.70
2023-03-05T02:31:28.770Z,30.02
2023-03-05T02:33:58.336Z,30.40
2023-03-05T02:36:25.770Z,31.23
2023-03-05T02:38:53.679Z,30.75
2023-03-05T02:41:20.457Z,31.98
2023-03-05T02:43:47.103Z,32.05
2023-03-05T02:46:13.874Z,31.52
2023-03-05T02:48:40.602Z,32.60
2023-03-05T02:51:07.859Z,33.33
2023-03-05T02:53:34.847Z,31.42
2023-03-05T02:56:01.651Z,30.55
2023-03-05T02:58:28.426Z,33.75
2023-03-05T03:00:55.101Z,32.75
2023-03-05T03:03:21.820Z,33.30
2023-03-05T03:05:48.654Z,33.10
2023-03-05T03:08:15.888Z,32.38
2023-03-05T03:10:42.581Z,32.78
2023-03-05T03:13:09.345Z,31.15
2023-03-05T03:15:38.014Z,31.63
2023-03-05T03:18:04.770Z,33.42
2023-03-05T03:20:32.750Z,33.28
2023-03-05T03:22:59.468Z,33.67
2023-03-05T03:25:26.242Z,32.90
2023-03-05T03:27:53.033Z,30.98
2023-03-05T03:30:19.735Z,31.60
2023-03-05T03:32:47.880Z,31.75
2023-03-05T03:35:14.628Z,31.00
2023-03-05T03:37:41.305Z,29.33
2023-03-05T03:40:08.801Z,30.13
2023-03-05T03:42:35.488Z,31.38
2023-03-05T03:45:02.606Z,29.45
2023-03-05T03:47:30.798Z,29.70
2023-03-05T03:49:58.878Z,32.78
2023-03-05T03:52:26.452Z,31.00
2023-03-05T03:54:53.739Z,29.50
2023-03-05T03:57:20.425Z,27.70
2023-03-05T03:59:47.186Z,30.92
2023-03-05T04:02:14.156Z,28.20
2023-03-05T04:04:40.961Z,28.35
2023-03-05T04:07:08.364Z,30.70
2023-03-05T04:09:35.200Z,28.75
2023-03-05T04:12:01.925Z,29.77
2023-03-05T04:14:28.724Z,28.00
2023-03-05T04:16:55.396Z,26.85
2023-03-05T04:19:22.141Z,27.98
2023-03-05T04:21:48.853Z,26.17
2023-03-05T04:24:15.479Z,25.20
2023-03-05T04:26:42.137Z,25.45
2023-03-05T04:29:08.788Z,24.05
2023-03-05T04:31:35.514Z,26.23
2023-03-05T04:34:02.235Z,23.85
2023-03-05T04:36:29.047Z,22.45
2023-03-05T04:38:55.717Z,24.27
2023-03-05T04:41:22.367Z,22.73
2023-03-05T04:43:49.046Z,24.60
2023-03-05T04:46:15.732Z,21.08
2023-03-05T04:48:42.422Z,22.20
2023-03-05T04:51:09.119Z,26.00
2023-03-05T04:53:36.210Z,25.45
2023-03-05T04:56:03.049Z,23.33
2023-03-05T04:58:29.885Z,26.48
2023-03-05T05:01:04.685Z,26.70
2023-03-05T05:03:31.801Z,28.30
2023-03-05T05:05:59.753Z,28.33
2023-03-05T05:08:26.614Z,25.30
2023-03-05T05:11:02.172Z,25.00
2023-03-05T05:13:29.451Z,23.65
2023-03-05T05:15:56.223Z,23.35
2023-03-05T05:18:23.009Z,22.27
2023-03-05T05:20:49.915Z,25.58
2023-03-05T05:23:17.337Z,25.10
2023-03-05T05:25:44.302Z,25.00
2023-03-05T05:28:11.889Z,24.98
2023-03-05T05:30:39.001Z,26.63
2023-03-05T05:33:05.686Z,27.85
2023-03-05T05:35:32.484Z,30.95
2023-03-05T05:37:59.356Z,34.63
2023-03-05T05:40:26.021Z,30.20
2023-03-05T05:42:52.767Z,29.15
2023-03-05T05:45:19.506Z,29.65
2023-03-05T05:47:46.199Z,31.17
2023-03-05T05:50:14.695Z,30.42
2023-03-05T05:52:41.400Z,30.38
2023-03-05T05:55:08.566Z,32.40
2023-03-05T05:57:35.518Z,30.13
2023-03-05T06:00:02.754Z,31.88
2023-03-05T06:02:29.463Z,30.40
2023-03-05T06:04:58.288Z,34.60
2023-03-05T06:07:25.111Z,38.35
2023-03-05T06:09:51.799Z,31.42
2023-03-05T06:12:18.473Z,26.13
2023-03-05T06:14:45.226Z,26.90
2023-03-05T06:17:14.846Z,23.80
2023-03-05T06:19:43.714Z,23.27
2023-03-05T06:22:10.423Z,27.67
2023-03-05T06:24:38.346Z,24.70
2023-03-05T06:27:06.359Z,25.25
2023-03-05T06:29:33.032Z,24.95
2023-03-05T06:31:59.781Z,22.90
2023-03-05T06:34:26.532Z,21.70
2023-03-05T06:36:53.274Z,22.55
2023-03-05T06:39:19.918Z,22.70
2023-03-05T06:41:46.556Z,40.08
2023-03-05T06:44:13.258Z,32.08
2023-03-05T06:46:40.020Z,26.55
2023-03-05T06:49:08.632Z,24.27
2023-03-05T06:51:37.693Z,23.85
2023-03-05T06:54:07.795Z,22.23
2023-03-05T06:56:38.440Z,22.33
2023-03-05T06:59:05.661Z,22.45
2023-03-05T07:01:32.868Z,24.80
2023-03-05T07:04:00.498Z,22.17
2023-03-05T07:06:27.907Z,22.58
2023-03-05T07:08:56.333Z,23.80
2023-03-05T07:11:23.515Z,24.98
2023-03-05T07:13:51.636Z,26.27
2023-03-05T07:16:20.799Z,25.17
2023-03-05T07:18:48.402Z,26.00
2023-03-05T07:21:21.420Z,25.00
2023-03-05T07:23:48.489Z,23.10
2023-03-05T07:26:16.126Z,25.10
2023-03-05T07:28:43.214Z,21.73
2023-03-05T07:31:16.153Z,21.67
2023-03-05T07:33:42.942Z,21.25
2023-03-05T07:36:10.818Z,21.60
2023-03-05T07:38:37.649Z,22.40
2023-03-05T07:41:06.642Z,20.67
2023-03-05T07:43:33.290Z,23.70
2023-03-05T07:46:00.242Z,30.88
2023-03-05T07:48:27.038Z,33.33
2023-03-05T07:51:20.890Z,29.02
2023-03-05T07:53:49.505Z,27.33
2023-03-05T07:56:26.520Z,24.17
2023-03-05T07:58:53.453Z,24.08
2023-03-05T08:01:20.129Z,22.92
2023-03-05T08:03:46.891Z,26.77
2023-03-05T08:06:13.656Z,26.77
2023-03-05T08:08:40.389Z,24.88
2023-03-05T08:11:09.520Z,25.42
2023-03-05T08:13:36.608Z,27.05
2023-03-05T08:16:08.052Z,33.70
2023-03-05T08:18:35.441Z,33.50
2023-03-05T08:21:02.256Z,34.33
2023-03-05T08:23:29.593Z,28.55
2023-03-05T08:25:56.912Z,29.08
2023-03-05T08:28:24.026Z,26.67
2023-03-05T08:30:50.899Z,25.70
2023-03-05T08:33:17.906Z,23.92
2023-03-05T08:35:44.803Z,29.67
2023-03-05T08:38:11.734Z,25.88
2023-03-05T08:40:38.380Z,27.05
2023-03-05T08:43:05.935Z,26.80
2023-03-05T08:45:32.675Z,27.30
2023-03-05T08:47:59.334Z,24.55
2023-03-05T08:50:26.153Z,21.33
2023-03-05T08:52:52.836Z,22.23
2023-03-05T08:55:19.685Z,24.65
2023-03-05T08:57:46.360Z,22.95
2023-03-05T09:00:13.958Z,23.55
2023-03-05T09:02:40.793Z,20.45
2023-03-05T09:05:08.066Z,20.40
2023-03-05T09:07:34.810Z,23.63
2023-03-05T09:10:01.474Z,21.10
2023-03-05T09:12:28.234Z,20.98
2023-03-05T09:14:55.772Z,17.08
2023-03-05T09:17:23.235Z,18.48
2023-03-05T09:19:50.396Z,16.80
2023-03-05T09:22:17.113Z,16.90
2023-03-05T09:24:44.174Z,15.20
2023-03-05T09:27:10.936Z,16.15
2023-03-05T09:29:37.845Z,16.70
2023-03-05T09:32:04.767Z,16.45
2023-03-05T09:34:31.771Z,16.20
2023-03-05T09:36:58.383Z,16.90
2023-03-05T09:39:25.093Z,19.15
2023-03-05T09:42:10.461Z,19.83
2023-03-05T09:44:55.920Z,20.75
2023-03-05T09:47:31.553Z,22.45
2023-03-05T09:50:10.118Z,21.15
2023-03-05T09:52:47.058Z,21.17
2023-03-05T09:55:19.429Z,20.15
2023-03-05T09:57:51.514Z,21.85
2023-03-05T10:00:37.850Z,20.25
2023-03-05T10:03:07.377Z,21.60
2023-03-05T10:05:52.801Z,19.75
2023-03-05T10:08:22.250Z,21.05
2023-03-05T10:10:52.458Z,19.75
2023-03-05T10:13:26.239Z,19.50
2023-03-05T10:16:11.351Z,19.13
2023-03-05T10:18:47.336Z,19.20
2023-03-05T10:21:17.428Z,19.98
2023-03-05T10:23:53.180Z,18.67
2023-03-05T10:26:52.182Z,19.63
2023-03-05T10:29:47.300Z,20.35
2023-03-05T10:32:32.250Z,20.02
2023-03-05T10:35:20.928Z,20.38
2023-03-05T10:37:59.766Z,21.92
2023-03-05T10:40:36.846Z,21.45
2023-03-05T10:43:25.298Z,21.92
2023-03-05T10:45:55.406Z,20.13
2023-03-05T10:48:42.136Z,18.60
2023-03-05T10:51:55.108Z,17.48
2023-03-05T10:54:35.932Z,19.42
2023-03-05T10:57:23.341Z,24.52
2023-03-05T11:00:06.554Z,18.00
2023-03-05T11:02:34.170Z,20.80
2023-03-05T11:05:01.110Z,19.58
2023-03-05T11:07:33.941Z,18.00
2023-03-05T11:10:00.588Z,20.27
2023-03-05T11:12:29.026Z,21.20
2023-03-05T11:15:20.122Z,20.70
2023-03-05T11:17:49.080Z,18.10
2023-03-05T11:20:28.013Z,19.30
2023-03-05T11:23:14.582Z,17.95
2023-03-05T11:26:13.464Z,17.65
2023-03-05T11:28:43.860Z,17.10
2023-03-05T11:31:16.748Z,16.42
2023-03-05T11:34:00.487Z,16.55
2023-03-05T11:36:34.446Z,18.05
2023-03-05T11:39:07.736Z,17.42
2023-03-05T11:41:36.080Z,17.00
2023-03-05T11:44:06.341Z,16.55
2023-03-05T11:46:44.188Z,18.90
2023-03-05T11:49:15.733Z,17.50
2023-03-05T11:52:11.850Z,16.65
2023-03-05T11:55:06.849Z,19.67
2023-03-05T11:57:41.933Z,16.15
2023-03-05T12:00:16.268Z,17.38
2023-03-05T12:02:43.200Z,16.88
2023-03-05T12:05:15.770Z,15.27
2023-03-05T12:07:46.590Z,18.15
2023-03-05T12:10:23.968Z,20.95
2023-03-05T12:12:50.598Z,16.15
2023-03-05T12:15:26.123Z,17.25
2023-03-05T12:20:36.395Z,18.27
2023-03-05T12:23:03.209Z,17.48
2023-03-05T12:25:46.901Z,16.40
2023-03-05T12:28:16.208Z,17.30
2023-03-05T12:33:34.561Z,17.33
2023-03-05T12:36:19.577Z,17.15
2023-03-05T12:38:48.301Z,16.38
2023-03-05T12:41:24.824Z,17.40
2023-03-05T12:44:19.374Z,18.05
2023-03-05T12:47:06.678Z,19.17
2023-03-05T12:49:39.769Z,18.42
2023-03-05T12:52:21.310Z,18.48
2023-03-05T12:55:15.861Z,18.55
2023-03-05T12:57:45.316Z,18.88
2023-03-05T13:00:21.728Z,17.75
2023-03-05T13:02:55.789Z,18.75
2023-03-05T13:05:31.437Z,20.33
2023-03-05T13:08:37.873Z,21.58
2023-03-05T13:11:22.883Z,17.67
2023-03-05T13:13:50.467Z,19.77
2023-03-05T13:16:24.515Z,20.60
2023-03-05T13:18:52.876Z,20.70
2023-03-05T13:21:24.327Z,29.95
2023-03-05T13:23:58.925Z,19.23
2023-03-05T13:26:26.882Z,18.35
2023-03-05T13:29:19.376Z,19.52
2023-03-05T13:31:49.006Z,17.38
2023-03-05T13:34:32.023Z,17.70
2023-03-05T13:37:07.589Z,17.42
2023-03-05T13:39:39.331Z,16.65
2023-03-05T13:42:18.140Z,18.38
2023-03-05T13:44:56.776Z,17.95
2023-03-05T13:47:26.250Z,16.65
2023-03-05T13:50:22.474Z,18.25
2023-03-05T13:55:35.119Z,18.25
2023-03-05T13:58:01.802Z,18.83
2023-03-05T14:00:30.523Z,17.50
2023-03-05T14:03:01.287Z,21.08
2023-03-05T14:05:28.730Z,18.15
2023-03-05T14:07:56.718Z,19.25
2023-03-05T14:10:26.352Z,19.23
2023-03-05T14:12:53.055Z,22.13
2023-03-05T14:15:21.711Z,18.25
2023-03-05T14:17:48.497Z,18.10
2023-03-05T14:20:27.652Z,19.00
2023-03-05T14:22:59.832Z,21.02
2023-03-05T14:25:39.812Z,19.02
2023-03-05T14:28:29.340Z,18.95
2023-03-05T14:30:56.897Z,19.52
2023-03-05T14:33:26.067Z,21.63
2023-03-05T14:35:53.038Z,20.58
2023-03-05T14:38:27.792Z,25.58
2023-03-05T14:40:54.629Z,30.08
2023-03-05T14:43:21.784Z,23.05
2023-03-05T14:45:48.542Z,22.60
2023-03-05T14:48:18.893Z,26.92
2023-03-05T14:50:53.677Z,28.65
2023-03-05T14:53:30.726Z,22.95
2023-03-05T14:55:57.385Z,24.88
2023-03-05T14:58:32.539Z,25.63
2023-03-05T15:00:59.568Z,26.35
2023-03-05T15:03:28.087Z,21.98
2023-03-05T15:05:57.133Z,24.15
2023-03-05T15:08:26.844Z,22.65
2023-03-05T15:10:54.116Z,25.80
2023-03-05T15:13:20.826Z,20.00
2023-03-05T15:15:49.621Z,26.52
2023-03-05T15:18:18.603Z,24.23
2023-03-05T15:20:46.145Z,23.35
2023-03-05T15:23:13.090Z,25.95
2023-03-05T15:25:40.302Z,23.23
2023-03-05T15:28:07.147Z,29.65
2023-03-05T15:30:37.289Z,22.15
2023-03-05T15:33:06.648Z,25.48
2023-03-05T15:37:59.971Z,27.63
2023-03-05T15:40:27.851Z,29.33
2023-03-05T15:42:59.261Z,34.33
2023-03-05T15:45:26.331Z,24.92
2023-03-05T15:47:53.872Z,23.33
2023-03-05T15:50:21.522Z,23.27
2023-03-05T15:52:48.743Z,26.70
2023-03-05T15:55:15.418Z,24.63
2023-03-05T15:57:43.851Z,27.58
2023-03-05T16:00:11.764Z,27.40
2023-03-05T16:02:38.453Z,26.98
2023-03-05T16:05:05.936Z,36.72
2023-03-05T16:07:34.285Z,25.67
2023-03-05T16:10:01.029Z,28.35
2023-03-05T16:12:33.063Z,26.92
2023-03-05T16:14:59.758Z,28.23
2023-03-05T16:17:26.437Z,23.27
2023-03-05T16:19:54.821Z,25.85
2023-03-05T16:22:21.586Z,24.92
2023-03-05T16:24:49.446Z,26.15
2023-03-05T16:27:16.146Z,23.42
2023-03-05T16:29:43.331Z,24.95
2023-03-05T16:32:10.016Z,25.33
2023-03-05T16:34:36.814Z,25.35
2023-03-05T16:37:06.911Z,22.42
2023-03-05T16:39:33.633Z,26.02
2023-03-05T16:42:00.416Z,26.88
2023-03-05T16:44:27.157Z,27.25
2023-03-05T16:46:54.209Z,25.80
2023-03-05T16:49:21.650Z,25.85
2023-03-05T16:51:48.873Z,26.48
2023-03-05T16:54:15.754Z,23.60
2023-03-05T16:56:42.522Z,25.27
2023-03-05T16:59:09.286Z,26.33
2023-03-05T17:01:36.055Z,27.23
2023-03-05T17:04:03.117Z,31.90
2023-03-05T17:06:31.468Z,34.45
2023-03-05T17:08:58.688Z,31.20
2023-03-05T17:11:26.015Z,32.30
2023-03-05T17:13:52.748Z,31.52
2023-03-05T17:16:21.032Z,27.88
2023-03-05T17:18:48.281Z,28.75
2023-03-05T17:21:16.161Z,29.40
2023-03-05T17:23:42.939Z,31.17
2023-03-05T17:26:11.894Z,32.38
2023-03-05T17:28:38.822Z,30.00
2023-03-05T17:31:05.681Z,32.63
2023-03-05T17:33:33.302Z,31.42
2023-03-05T17:36:00.393Z,31.02
2023-03-05T17:38:27.663Z,32.88
2023-03-05T17:40:54.462Z,31.98
2023-03-05T17:43:21.144Z,30.58
2023-03-05T17:45:48.040Z,34.40
2023-03-05T17:48:15.993Z,32.65
2023-03-05T17:50:45.094Z,31.15
2023-03-05T17:53:12.344Z,30.55
2023-03-05T17:55:39.942Z,31.02
2023-03-05T17:58:06.665Z,29.48
2023-03-05T18:00:33.694Z,31.20
2023-03-05T18:03:00.682Z,29.13
2023-03-05T18:05:28.433Z,26.75
2023-03-05T18:07:55.958Z,33.97
2023-03-05T18:10:24.742Z,31.05
2023-03-05T18:12:52.080Z,33.28
2023-03-05T18:15:20.256Z,30.17
2023-03-05T18:17:47.117Z,30.30
2023-03-05T18:20:29.477Z,37.70
2023-03-05T18:22:57.569Z,32.75
2023-03-05T18:25:30.787Z,30.70
2023-03-05T18:28:01.448Z,31.67
2023-03-05T18:30:28.984Z,36.42
2023-03-05T18:32:55.849Z,45.88
2023-03-05T18:35:23.225Z,44.03
2023-03-05T18:37:49.949Z,37.63
2023-03-05T18:40:20.322Z,38.92
2023-03-05T18:42:47.080Z,37.88
2023-03-05T18:45:15.313Z,38.67
2023-03-05T18:47:42.562Z,35.88
2023-03-05T18:50:12.215Z,38.13
2023-03-05T18:52:38.932Z,42.25
2023-03-05T18:55:06.129Z,40.50
2023-03-05T18:57:32.858Z,45.53
2023-03-05T18:59:59.599Z,47.08
2023-03-05T19:02:26.446Z,53.05
2023-03-05T19:04:53.124Z,58.85
2023-03-05T19:07:19.862Z,59.65
2023-03-05T19:09:58.880Z,58.08
2023-03-05T19:12:31.013Z,55.47
2023-03-05T19:14:59.375Z,54.35
2023-03-05T19:17:26.199Z,56.65
2023-03-05T19:19:54.220Z,67.05
2023-03-05T19:22:21.464Z,61.60
2023-03-05T19:24:48.169Z,64.45
2023-03-05T19:27:14.924Z,62.30
2023-03-05T19:29:43.198Z,44.30
2023-03-05T19:32:16.064Z,41.13
2023-03-05T19:34:45.010Z,41.95
2023-03-05T19:37:12.484Z,46.00
2023-03-05T19:39:40.431Z,41.38
2023-03-05T19:42:07.351Z,40.72
2023-03-05T19:44:34.338Z,43.00
2023-03-05T19:47:01.144Z,41.20
2023-03-05T19:49:28.133Z,39.20
2023-03-05T19:51:55.230Z,35.58
2023-03-05T19:54:22.922Z,38.10
2023-03-05T19:56:52.909Z,33.15
2023-03-05T19:59:21.293Z,34.28
2023-03-05T20:01:49.076Z,33.13
2023-03-05T20:04:21.733Z,33.00
2023-03-05T20:06:48.543Z,31.38
2023-03-05T20:09:16.366Z,31.05
2023-03-05T20:11:43.514Z,29.45
2023-03-05T20:14:10.440Z,29.23
2023-03-05T20:16:38.260Z,30.33
2023-03-05T20:19:07.182Z,26.73
2023-03-05T20:21:36.377Z,32.50
2023-03-05T20:24:07.862Z,32.22
2023-03-05T20:26:37.586Z,28.73
2023-03-05T20:29:04.975Z,29.65
2023-03-05T20:31:37.072Z,30.58
2023-03-05T20:34:09.838Z,29.60
2023-03-05T20:36:36.555Z,29.42
2023-03-05T20:39:04.252Z,33.67
2023-03-05T20:41:32.172Z,34.08
2023-03-05T20:43:58.986Z,33.63
2023-03-05T20:46:30.932Z,32.47
2023-03-05T20:49:01.590Z,31.67
2023-03-05T20:51:35.141Z,35.65
2023-03-05T20:54:13.098Z,58.50
2023-03-05T20:56:40.002Z,37.90
2023-03-05T20:59:08.925Z,34.22
2023-03-05T21:01:38.472Z,35.00
2023-03-05T21:06:32.426Z,29.20
2023-03-05T21:09:00.021Z,29.90
2023-03-05T21:11:26.719Z,27.42
2023-03-05T21:13:53.572Z,31.25
2023-03-05T21:16:23.770Z,32.15
2023-03-05T21:18:51.325Z,32.80
2023-03-05T21:21:18.634Z,35.47
2023-03-05T21:23:45.600Z,34.53
2023-03-05T21:26:13.492Z,36.85
2023-03-05T21:28:40.692Z,34.38
2023-03-05T21:31:09.758Z,32.28
2023-03-05T21:33:37.237Z,33.15
2023-03-05T21:36:05.145Z,30.38
2023-03-05T21:38:34.082Z,31.42
2023-03-05T21:41:01.920Z,37.30
2023-03-05T21:43:31.125Z,42.20
2023-03-05T21:45:59.624Z,39.05
2023-03-05T21:48:26.424Z,44.88
2023-03-05T21:50:54.852Z,35.58
2023-03-05T21:53:21.897Z,34.83
2023-03-05T21:56:26.019Z,57.45
2023-03-05T21:58:53.481Z,54.60
2023-03-05T22:01:21.265Z,47.92
2023-03-05T22:03:49.149Z,40.13
2023-03-05T22:06:17.072Z,40.50
2023-03-05T22:08:43.746Z,39.03
2023-03-05T22:11:11.686Z,38.83
2023-03-05T22:13:38.873Z,39.50
2023-03-05T22:16:06.222Z,40.70
2023-03-05T22:18:33.806Z,36.30
2023-03-05T22:21:01.009Z,38.08
2023-03-05T22:23:30.755Z,35.33
2023-03-05T22:26:03.173Z,35.95
2023-03-05T22:28:30.370Z,34.08
2023-03-05T22:30:57.147Z,36.13
2023-03-05T22:33:24.028Z,35.65
2023-03-05T22:35:51.023Z,32.72
2023-03-05T22:38:18.025Z,38.40
2023-03-05T22:40:46.223Z,33.83
2023-03-05T22:43:14.064Z,45.65
2023-03-05T22:45:40.894Z,46.55
2023-03-05T22:48:09.874Z,46.70
2023-03-05T22:50:40.675Z,40.55
2023-03-05T22:53:08.013Z,42.60
2023-03-05T22:55:34.936Z,41.05
2023-03-05T22:58:01.597Z,43.80
2023-03-05T23:00:28.262Z,45.20
2023-03-05T23:02:55.136Z,43.08
2023-03-05T23:05:21.811Z,39.20
2023-03-05T23:07:49.284Z,38.78
2023-03-05T23:10:23.039Z,39.97
2023-03-05T23:12:52.682Z,38.53
2023-03-05T23:15:25.788Z,37.83
2023-03-05T23:17:52.536Z,36.72
2023-03-05T23:20:21.438Z,36.17
2023-03-05T23:22:48.729Z,38.63
2023-03-05T23:25:16.510Z,35.15
2023-03-05T23:27:43.465Z,36.40
2023-03-05T23:30:23.685Z,36.00
2023-03-05T23:32:57.470Z,34.80
2023-03-05T23:35:30.447Z,33.22
2023-03-05T23:37:58.545Z,34.75
2023-03-05T23:40:31.621Z,33.55
2023-03-05T23:42:58.912Z,30.95
2023-03-05T23:45:26.615Z,30.80
2023-03-05T23:47:53.587Z,28.60
2023-03-05T23:50:23.010Z,28.27
2023-03-05T23:52:50.686Z,28.90
2023-03-05T23:55:23.181Z,25.17
2023-03-05T23:57:50.123Z,22.95
